Back to top

Sheridan, WY weather

Sheridan County Airport, Sheridan, WY: 7/22/2019 14:53
Visibility10 statute milesclear sky
View 7-Day Forecast
Area Summary
Sky/CloudsSky Clear
Weather [last 24 hours]None
Pressure30.19 in.Hg (1022 hPa)
3-hour Pressure Tendency0.04429 in.Hg (1.5 hPa) Decreasing, then steady, or decreasing then decreasing more slowly
Dew Point59 °F (15 °C)
Relative Humidity36.5 %
Temperature89.1 °F (31.7 °C)red thermometer
Reading TimeMinimum to Maximum Temperature
6-hr ending 7/22@11:5355 °F to 82 °F (12.8 °C to 27.8 °C)
6-hr ending 7/22@05:5354 °F to 64.9 °F (12.2 °C to 18.3 °C)
6-hr ending 7/21@23:5362.1 °F to 75.9 °F (16.7 °C to 24.4 °C)
6-hr ending 7/21@17:5369.1 °F to 77 °F (20.6 °C to 25 °C)
24-hr ending 7/22@00:5357 °F to 77 °F (13.9 °C to 25 °C)
Wind10.4 MPH (9 KT) gusting to 18.4 MPH (16 KT)green arrow pointing 112.5 degrees
Wind FromEast/Southeast (120 Degrees)
Twilight Begins05:07Sunshine Yesterday
Sunrise05:42N/A
Sunset20:46
Twilight Ends21:21
METARKSHR 222053Z AUTO 12009G16KT 10SM CLR 32/15 A3019 RMK AO2 SLP182 T03170150 56015
Tags: